Time;durP1;ratioP1;P1;durP2;ratioP2;P2;SDS_P1;SDS_P2;PMS_P1;PMS_P2;Temp;Humidity;BMP_temperature;BMP_pressure;BME280_temperature;BME280_humidity;BME280_pressure;Samples;Min_cycle;Max_cycle;Signal;HPM_P1;HPM_P2
2022/04/01 00:01:29;;;;;;;19.77;4.93;;;;;;;;;;4955520;29;20074;-67
2022/04/01 00:04:34;;;;;;;22.95;5.25;;;;;;;;;;4966234;28;20062;-67
2022/04/01 00:07:40;;;;;;;21.60;5.75;;;;;;;;;;4955839;29;20505;-68
2022/04/01 00:10:44;;;;;;;17.27;5.32;;;;;;;;;;4955912;29;20497;-68
2022/04/01 00:14:08;;;;;;;23.10;5.70;;;;;;;;;;4954881;29;20080;-69
2022/04/01 00:17:12;;;;;;;17.98;4.72;;;;;;;;;;4955484;29;20051;-68
2022/04/01 00:20:19;;;;;;;21.40;6.40;;;;;;;;;;4955480;29;20066;-68
2022/04/01 00:23:24;;;;;;;22.35;5.85;;;;;;;;;;4955299;29;20046;-71
2022/04/01 00:26:28;;;;;;;21.33;5.68;;;;;;;;;;4955061;29;20050;-68
2022/04/01 00:29:34;;;;;;;18.70;4.28;;;;;;;;;;4965924;28;20414;-68
2022/04/01 00:32:38;;;;;;;29.38;6.25;;;;;;;;;;4954263;29;20062;-67
2022/04/01 00:35:43;;;;;;;18.20;4.97;;;;;;;;;;4955029;29;20043;-66
2022/04/01 00:38:47;;;;;;;13.60;4.50;;;;;;;;;;4965489;28;20708;-67
2022/04/01 00:41:54;;;;;;;13.40;4.95;;;;;;;;;;4955247;29;20054;-67
2022/04/01 00:44:58;;;;;;;14.98;5.40;;;;;;;;;;4965547;28;20050;-68
2022/04/01 00:48:03;;;;;;;15.80;4.43;;;;;;;;;;4955093;29;20058;-68
2022/04/01 00:51:09;;;;;;;18.20;5.13;;;;;;;;;;4954939;29;20058;-68
2022/04/01 00:54:14;;;;;;;17.67;4.95;;;;;;;;;;4954813;29;20047;-68
2022/04/01 00:57:19;;;;;;;10.90;4.18;;;;;;;;;;4954452;29;20506;-68
2022/04/01 01:00:25;;;;;;;19.65;5.00;;;;;;;;;;4964727;28;20546;-68
2022/04/01 01:03:29;;;;;;;18.63;4.78;;;;;;;;;;4954983;29;20042;-67
2022/04/01 01:06:37;;;;;;;17.10;3.90;;;;;;;;;;4954495;29;20046;-67
2022/04/01 01:09:43;;;;;;;16.17;4.57;;;;;;;;;;4964712;28;20051;-67
2022/04/01 01:12:47;;;;;;;18.30;4.60;;;;;;;;;;4954334;29;20061;-68
2022/04/01 01:15:52;;;;;;;18.05;4.75;;;;;;;;;;4964834;28;20050;-67
2022/04/01 01:19:07;;;;;;;19.48;4.90;;;;;;;;;;4954675;29;20050;-68
2022/04/01 01:22:12;;;;;;;16.58;4.35;;;;;;;;;;4964857;28;20058;-68
2022/04/01 01:25:17;;;;;;;11.73;4.35;;;;;;;;;;4964556;28;20478;-66
2022/04/01 01:28:22;;;;;;;18.70;3.83;;;;;;;;;;4964782;28;20589;-68
2022/04/01 01:31:27;;;;;;;13.85;4.88;;;;;;;;;;4953899;29;20054;-68
2022/04/01 01:34:35;;;;;;;11.05;4.63;;;;;;;;;;4964586;28;20054;-67
2022/04/01 01:37:39;;;;;;;12.05;4.50;;;;;;;;;;4954215;29;20039;-67
2022/04/01 01:40:44;;;;;;;12.85;5.05;;;;;;;;;;4964270;28;20442;-67
2022/04/01 01:43:48;;;;;;;15.77;5.13;;;;;;;;;;4954177;29;20402;-67
2022/04/01 01:46:53;;;;;;;13.10;4.88;;;;;;;;;;4964209;28;20517;-68
2022/04/01 01:56:45;;;;;;;14.00;5.70;;;;;;;;;;4964088;28;20054;-67
2022/04/01 01:59:50;;;;;;;15.75;6.15;;;;;;;;;;4963647;28;20038;-68
2022/04/01 02:02:55;;;;;;;11.52;4.68;;;;;;;;;;4963989;28;20054;-68
2022/04/01 02:05:59;;;;;;;22.60;6.32;;;;;;;;;;4963782;28;20042;-68
2022/04/01 02:09:03;;;;;;;17.70;5.93;;;;;;;;;;4963991;28;20054;-67
2022/04/01 02:12:07;;;;;;;24.70;7.63;;;;;;;;;;4953278;29;20046;-67
2022/04/01 02:15:12;;;;;;;24.45;6.50;;;;;;;;;;4953550;29;20043;-68
2022/04/01 02:18:16;;;;;;;14.75;5.28;;;;;;;;;;4963676;28;20054;-68
2022/04/01 02:21:21;;;;;;;16.42;5.47;;;;;;;;;;4962647;28;20058;-67
2022/04/01 02:24:25;;;;;;;19.77;5.32;;;;;;;;;;4953299;29;20042;-68
2022/04/01 02:27:30;;;;;;;18.65;6.68;;;;;;;;;;4963573;28;20050;-67
2022/04/01 02:41:49;;;;;;;20.83;6.57;;;13.00;99.90;;;;;;5108701;27;20395;-65
2022/04/01 02:44:53;;;;;;;15.93;5.75;;;12.60;99.90;;;;;;5108076;28;20043;-67
2022/04/01 02:47:58;;;;;;;20.00;5.60;;;12.60;99.90;;;;;;5107920;28;20041;-67
2022/04/01 02:51:07;;;;;;;16.15;5.68;;;12.60;99.90;;;;;;5107466;28;20055;-66
2022/04/01 02:54:12;;;;;;;14.27;5.18;;;12.60;99.90;;;;;;5107697;28;20035;-67
2022/04/01 02:57:17;;;;;;;19.92;5.07;;;12.60;99.90;;;;;;5108725;28;20043;-65
2022/04/01 03:00:24;;;;;;;20.92;5.90;;;12.70;99.90;;;;;;5107663;28;20035;-65
2022/04/01 03:03:35;;;;;;;21.75;5.47;;;12.80;99.90;;;;;;5107576;28;20055;-66
2022/04/01 03:06:45;;;;;;;22.67;5.10;;;12.90;99.90;;;;;;5107275;28;20391;-66
2022/04/01 03:09:50;;;;;;;18.75;5.28;;;12.90;99.90;;;;;;5107347;28;20038;-66
2022/04/01 03:12:59;;;;;;;13.25;5.03;;;12.90;99.90;;;;;;5096751;28;20048;-66
2022/04/01 03:16:39;;;;;;;21.25;5.47;;;12.80;99.90;;;;;;5105646;28;20042;-67
2022/04/01 03:19:45;;;;;;;12.98;4.93;;;12.80;99.90;;;;;;5107443;28;20045;-67
2022/04/01 03:22:50;;;;;;;16.55;4.82;;;12.80;99.90;;;;;;5106947;28;20047;-67
2022/04/01 03:25:58;;;;;;;12.40;5.05;;;12.70;99.90;;;;;;5096087;28;20536;-68
2022/04/01 03:29:14;;;;;;;14.43;4.90;;;12.60;99.90;;;;;;5107063;28;20386;-67
2022/04/01 03:32:17;;;;;;;14.05;4.35;;;12.50;99.90;;;;;;5106670;28;20035;-67
2022/04/01 03:35:24;;;;;;;15.88;5.20;;;12.50;99.90;;;;;;5106725;28;20593;-66
2022/04/01 03:38:28;;;;;;;15.10;5.45;;;12.50;99.90;;;;;;5107652;28;20043;-66
2022/04/01 03:41:33;;;;;;;15.73;5.10;;;12.40;99.90;;;;;;5024606;28;20060;-66
2022/04/01 03:44:41;;;;;;;17.42;5.20;;;12.50;99.90;;;;;;5010375;28;20396;-67
2022/04/01 03:48:12;;;;;;;17.65;5.13;;;12.50;99.90;;;;;;5010580;28;20045;-67
2022/04/01 03:51:19;;;;;;;14.82;5.20;;;12.60;99.90;;;;;;5009424;28;20056;-67
2022/04/01 03:54:25;;;;;;;14.32;5.25;;;12.60;99.90;;;;;;5009795;28;20192;-67
2022/04/01 03:57:55;;;;;;;20.63;5.97;;;12.60;99.90;;;;;;5010453;28;20049;-67
2022/04/01 04:01:19;;;;;;;16.15;6.90;;;12.40;99.90;;;;;;5010324;28;20041;-67
2022/04/01 04:04:23;;;;;;;17.13;6.60;;;12.40;99.90;;;;;;5010642;28;20049;-69
2022/04/01 04:07:29;;;;;;;14.98;6.30;;;12.30;99.90;;;;;;5009475;28;20045;-67
2022/04/01 04:10:37;;;;;;;18.63;6.88;;;12.30;99.90;;;;;;5009548;28;20061;-67
2022/04/01 04:14:02;;;;;;;17.63;6.28;;;12.30;99.90;;;;;;5010364;28;20112;-67
2022/04/01 04:17:11;;;;;;;18.55;6.85;;;12.40;99.90;;;;;;5009449;28;20049;-67
2022/04/01 04:20:35;;;;;;;14.75;6.97;;;12.40;99.90;;;;;;5009449;28;20049;-67
2022/04/01 04:23:46;;;;;;;14.38;6.95;;;12.40;99.90;;;;;;5009434;28;20061;-67
2022/04/01 04:26:51;;;;;;;18.33;7.28;;;12.40;99.90;;;;;;5009025;28;20057;-66
2022/04/01 04:30:08;;;;;;;16.05;6.68;;;12.40;99.90;;;;;;5009143;28;20044;-67
2022/04/01 04:33:27;;;;;;;16.42;7.28;;;12.40;99.90;;;;;;5009340;28;20057;-66
2022/04/01 04:36:39;;;;;;;17.70;6.75;;;12.40;99.90;;;;;;5010006;28;20037;-66
2022/04/01 04:39:44;;;;;;;17.15;5.97;;;12.50;99.90;;;;;;5008992;28;20116;-67
2022/04/01 04:42:49;;;;;;;15.40;6.10;;;12.50;99.90;;;;;;5009740;28;20503;-67
2022/04/01 04:45:58;;;;;;;16.73;6.18;;;12.50;99.90;;;;;;5009005;28;20044;-67
2022/04/01 04:49:05;;;;;;;17.73;6.15;;;12.60;99.90;;;;;;5009137;28;20111;-68
2022/04/01 04:52:09;;;;;;;12.35;7.32;;;12.40;99.90;;;;;;5009120;28;20414;-67
2022/04/01 04:55:44;;;;;;;17.00;6.13;;;12.40;99.90;;;;;;5010036;28;20049;-66
2022/04/01 04:58:54;;;;;;;15.73;6.28;;;12.30;99.90;;;;;;5008878;28;20036;-67
2022/04/01 05:02:09;;;;;;;14.45;7.03;;;12.40;99.90;;;;;;5008649;28;20073;-68
2022/04/01 05:05:41;;;;;;;15.48;6.75;;;12.50;99.90;;;;;;5008940;28;20060;-67
2022/04/01 05:09:47;;;;;;;15.00;6.95;;;12.50;99.90;;;;;;5009848;28;20052;-67
2022/04/01 05:13:08;;;;;;;13.43;7.15;;;12.60;99.90;;;;;;5014710;28;20045;-66
2022/04/01 05:16:57;;;;;;;19.30;7.53;;;12.60;99.90;;;;;;5009482;28;20515;-67
2022/04/01 05:20:15;;;;;;;15.93;8.20;;;12.70;99.90;;;;;;4997085;28;20045;-65
2022/04/01 05:23:55;;;;;;;16.48;7.20;;;12.70;99.90;;;;;;5008601;28;20397;-66
2022/04/01 05:27:02;;;;;;;17.35;8.00;;;12.60;99.90;;;;;;5008330;28;20044;-67
2022/04/01 05:30:33;;;;;;;15.35;9.10;;;12.70;99.90;;;;;;5017212;28;20064;-65
2022/04/01 05:33:51;;;;;;;21.20;9.75;;;12.70;99.90;;;;;;5008088;28;20049;-65
2022/04/01 05:36:57;;;;;;;16.85;9.48;;;12.70;99.90;;;;;;5008396;28;20053;-66
2022/04/01 05:40:05;;;;;;;26.20;9.98;;;12.70;99.90;;;;;;5007844;28;20065;-66
2022/04/01 05:43:13;;;;;;;21.77;10.60;;;12.70;99.90;;;;;;5008710;28;20388;-66
2022/04/01 05:46:25;;;;;;;21.92;10.20;;;12.80;99.90;;;;;;5009234;28;20504;-66
2022/04/01 05:49:32;;;;;;;24.45;10.27;;;12.80;99.90;;;;;;5008283;28;20500;-65
2022/04/01 05:52:39;;;;;;;19.58;9.38;;;12.90;99.90;;;;;;5008008;28;20060;-65
2022/04/01 05:55:46;;;;;;;19.70;9.88;;;13.00;99.90;;;;;;5007879;28;20053;-66
2022/04/01 05:58:50;;;;;;;23.00;10.13;;;13.10;99.90;;;;;;5007806;28;20586;-65
2022/04/01 06:02:16;;;;;;;20.00;10.55;;;13.40;99.90;;;;;;5008581;28;20081;-66
2022/04/01 06:05:34;;;;;;;21.42;10.70;;;13.40;99.90;;;;;;5008370;28;20053;-65
2022/04/01 06:09:02;;;;;;;20.40;10.88;;;13.60;99.90;;;;;;5007723;28;20041;-65
2022/04/01 06:13:09;;;;;;;21.73;11.05;;;13.60;99.90;;;;;;5008451;28;20061;-64
2022/04/01 06:17:03;;;;;;;26.02;10.30;;;13.50;99.90;;;;;;5008836;28;20499;-66
2022/04/01 06:20:15;;;;;;;19.55;10.43;;;13.60;99.90;;;;;;5011663;28;20037;-65
2022/04/01 06:23:57;;;;;;;22.42;9.40;;;13.70;99.90;;;;;;5006853;28;20057;-63
2022/04/01 06:27:01;;;;;;;;;;;13.80;99.90;;;;;;5007823;28;20053;-62
2022/04/01 06:30:14;;;;;;;28.02;10.32;;;13.80;99.90;;;;;;5199649;22;20395;-63
2022/04/01 06:33:42;;;;;;;26.42;10.43;;;13.90;99.90;;;;;;5018733;28;20044;-64
2022/04/01 06:37:08;;;;;;;27.70;9.38;;;13.90;99.90;;;;;;5030818;28;20056;-64
2022/04/01 06:40:21;;;;;;;21.33;10.00;;;14.00;99.90;;;;;;5018576;28;20583;-64
2022/04/01 06:43:28;;;;;;;26.42;10.73;;;14.00;99.90;;;;;;5018649;28;20052;-68
2022/04/01 06:46:48;;;;;;;23.13;9.82;;;14.00;99.90;;;;;;5030670;28;20056;-66
2022/04/01 06:49:54;;;;;;;22.35;10.07;;;14.00;99.90;;;;;;5018242;28;20060;-66
2022/04/01 06:53:36;;;;;;;24.90;9.40;;;14.00;99.90;;;;;;5030946;28;20048;-67
2022/04/01 06:56:58;;;;;;;23.85;9.07;;;14.50;99.90;;;;;;5030752;28;20040;-66
2022/04/01 07:00:05;;;;;;;29.45;9.32;;;15.00;99.90;;;;;;5029700;28;20048;-64
2022/04/01 07:03:10;;;;;;;22.92;8.88;;;15.10;99.90;;;;;;5030561;28;20044;-65
2022/04/01 07:06:15;;;;;;;22.40;8.68;;;15.30;99.90;;;;;;5030710;28;20060;-65
2022/04/01 07:09:19;;;;;;;32.42;8.23;;;15.60;99.90;;;;;;5030690;28;20044;-68
2022/04/01 07:12:23;;;;;;;23.40;7.68;;;15.70;99.90;;;;;;5030531;28;20068;-64
2022/04/01 07:15:28;;;;;;;24.38;8.55;;;15.90;99.90;;;;;;5018481;28;20385;-65
2022/04/01 07:18:31;;;;;;;28.40;8.27;;;16.10;99.90;;;;;;5034241;28;20048;-64
2022/04/01 07:21:36;;;;;;;26.13;7.15;;;16.50;99.90;;;;;;5034613;28;20052;-67
2022/04/01 07:24:40;;;;;;;24.75;7.78;;;16.70;99.30;;;;;;5034345;28;20045;-66
2022/04/01 07:27:44;;;;;;;29.67;7.28;;;16.90;99.00;;;;;;5034162;28;20045;-66
2022/04/01 07:30:48;;;;;;;27.55;8.45;;;16.80;99.30;;;;;;5021288;28;20057;-65
2022/04/01 07:33:52;;;;;;;31.23;8.88;;;16.80;99.70;;;;;;5033775;28;20036;-67
2022/04/01 07:36:56;;;;;;;32.25;9.57;;;16.90;99.70;;;;;;5021637;28;20044;-66
2022/04/01 07:40:00;;;;;;;33.58;8.77;;;17.20;99.90;;;;;;5033859;28;20393;-66
2022/04/01 07:43:05;;;;;;;25.55;8.20;;;17.50;99.30;;;;;;5033710;28;20037;-65
2022/04/01 07:46:11;;;;;;;30.30;8.63;;;17.60;98.70;;;;;;5033535;28;20052;-62
2022/04/01 07:49:16;;;;;;;38.35;9.55;;;17.60;98.80;;;;;;5033557;28;20048;-69
2022/04/01 07:52:21;;;;;;;36.63;10.65;;;17.50;98.80;;;;;;5033721;28;20052;-67
2022/04/01 07:55:26;;;;;;;37.53;8.70;;;17.30;99.30;;;;;;5033327;28;20048;-66
2022/04/01 07:58:29;;;;;;;27.98;8.30;;;17.10;99.10;;;;;;5033708;28;20045;-65
2022/04/01 08:01:34;;;;;;;24.83;7.70;;;16.90;99.50;;;;;;5032233;28;20049;-61
2022/04/01 08:04:39;;;;;;;36.85;8.65;;;16.80;99.80;;;;;;5031462;28;20044;-61
2022/04/01 08:07:43;;;;;;;35.70;8.40;;;16.80;99.50;;;;;;5031808;28;20041;-64
2022/04/01 08:10:47;;;;;;;26.75;7.88;;;16.90;99.80;;;;;;5032792;28;20060;-63
2022/04/01 08:13:55;;;;;;;28.17;7.03;;;16.90;99.40;;;;;;5032760;28;20052;-63
2022/04/01 08:16:59;;;;;;;22.98;6.07;;;16.80;98.40;;;;;;5020975;28;20052;-63
2022/04/01 08:20:05;;;;;;;25.73;5.70;;;16.70;98.10;;;;;;5032931;28;20504;-63
2022/04/01 08:23:09;;;;;;;29.45;6.88;;;16.60;97.90;;;;;;5033035;28;20057;-62
2022/04/01 08:26:13;;;;;;;28.52;5.93;;;16.60;98.10;;;;;;5032776;28;20041;-63
2022/04/01 08:29:17;;;;;;;26.25;5.85;;;16.60;98.40;;;;;;5032607;28;20060;-62
2022/04/01 08:32:22;;;;;;;29.40;6.30;;;16.60;98.40;;;;;;5032950;28;20052;-62
2022/04/01 08:35:26;;;;;;;17.30;5.00;;;16.80;98.20;;;;;;5033098;28;20045;-62
2022/04/01 08:38:30;;;;;;;25.55;6.38;;;17.00;97.90;;;;;;5020868;28;20056;-62
2022/04/01 08:41:34;;;;;;;25.10;5.68;;;17.20;97.50;;;;;;5032643;28;20535;-63
2022/04/01 08:44:44;;;;;;;26.92;5.75;;;17.50;97.10;;;;;;5032633;28;20052;-61
2022/04/01 08:47:48;;;;;;;22.50;5.30;;;17.60;96.90;;;;;;5020510;28;20044;-62
2022/04/01 08:50:53;;;;;;;25.05;5.78;;;17.60;96.50;;;;;;5032398;28;20040;-62
2022/04/01 08:53:56;;;;;;;24.58;5.97;;;17.60;96.60;;;;;;5032635;28;20056;-63
2022/04/01 08:57:03;;;;;;;22.10;6.00;;;17.60;96.40;;;;;;5032666;28;20036;-63
2022/04/01 09:00:16;;;;;;;19.92;4.50;;;17.50;96.70;;;;;;5032186;28;20479;-61
2022/04/01 09:03:21;;;;;;;17.42;5.00;;;17.40;95.60;;;;;;5032456;28;20060;-63
2022/04/01 09:06:25;;;;;;;18.42;4.75;;;17.10;95.70;;;;;;5032174;28;20060;-62
2022/04/01 09:09:29;;;;;;;11.52;3.58;;;16.80;95.90;;;;;;5032241;28;20037;-63
2022/04/01 09:12:34;;;;;;;14.00;3.08;;;16.60;95.60;;;;;;5032283;28;20057;-63
2022/04/01 09:15:41;;;;;;;14.13;3.50;;;16.50;95.10;;;;;;5032023;28;20048;-63
2022/04/01 09:18:46;;;;;;;17.77;3.50;;;16.60;95.50;;;;;;5032134;28;20407;-62
2022/04/01 09:21:50;;;;;;;13.35;3.13;;;16.80;94.30;;;;;;5032335;28;20508;-63
2022/04/01 09:25:04;;;;;;;20.27;4.13;;;16.80;94.90;;;;;;5032051;28;20047;-62
2022/04/01 09:28:08;;;;;;;21.45;5.07;;;16.80;95.00;;;;;;5020025;28;20508;-62
2022/04/01 09:31:15;;;;;;;24.65;6.18;;;16.80;95.80;;;;;;5031532;28;20060;-63
2022/04/01 09:34:19;;;;;;;13.57;4.47;;;16.70;96.30;;;;;;5031828;28;20049;-61
2022/04/01 09:37:39;;;;;;;16.27;5.05;;;16.60;96.30;;;;;;5031509;28;20049;-62
2022/04/01 09:40:44;;;;;;;16.25;5.53;;;16.50;96.20;;;;;;5031090;28;20044;-63
2022/04/01 09:43:48;;;;;;;16.23;5.32;;;16.40;95.40;;;;;;5031315;28;20504;-63
2022/04/01 09:46:58;;;;;;;22.45;4.13;;;16.30;95.70;;;;;;5031399;28;20045;-65
2022/04/01 09:50:04;;;;;;;27.23;5.43;;;16.30;95.80;;;;;;5019485;28;20507;-63
2022/04/01 09:53:24;;;;;;;15.57;4.90;;;16.30;95.90;;;;;;5031562;28;20064;-65
2022/04/01 09:56:42;;;;;;;12.15;3.90;;;16.30;95.80;;;;;;5031348;28;20044;-64
2022/04/01 09:59:48;;;;;;;14.93;4.13;;;16.30;95.30;;;;;;5031257;28;20060;-63
2022/04/01 10:02:52;;;;;;;13.50;3.95;;;16.10;94.90;;;;;;5019115;28;20048;-65
2022/04/01 10:05:58;;;;;;;11.57;4.20;;;16.00;95.00;;;;;;5019061;28;20044;-66
2022/04/01 10:09:07;;;;;;;12.73;3.42;;;15.90;95.00;;;;;;5030608;28;20049;-67
2022/04/01 10:12:15;;;;;;;10.88;3.85;;;15.80;94.70;;;;;;5030603;28;20060;-65
2022/04/01 10:15:19;;;;;;;16.48;3.90;;;15.60;95.50;;;;;;5030862;28;20040;-64
2022/04/01 10:18:24;;;;;;;13.13;3.47;;;15.50;95.80;;;;;;5031160;28;20503;-65
2022/04/01 10:21:30;;;;;;;15.15;4.18;;;15.40;96.30;;;;;;5017487;28;20051;-64
2022/04/01 10:24:56;;;;;;;13.02;4.05;;;15.30;97.00;;;;;;5029506;28;20052;-63
2022/04/01 10:28:02;;;;;;;11.80;3.88;;;15.20;97.70;;;;;;5031182;28;20040;-64
2022/04/01 10:31:13;;;;;;;12.38;3.83;;;15.10;97.90;;;;;;5030559;28;20416;-62
2022/04/01 10:34:22;;;;;;;16.77;4.07;;;14.90;98.30;;;;;;5030848;28;20400;-62
2022/04/01 10:37:28;;;;;;;15.20;4.32;;;14.80;99.20;;;;;;5029827;28;20044;-62
2022/04/01 10:40:41;;;;;;;18.70;3.97;;;14.70;99.50;;;;;;5030690;28;20060;-62
2022/04/01 10:43:51;;;;;;;15.50;4.40;;;14.70;99.70;;;;;;5030686;28;20036;-63
2022/04/01 10:46:58;;;;;;;21.38;5.50;;;14.60;99.80;;;;;;5029214;28;20052;-62
2022/04/01 10:53:46;;;;;;;16.98;4.95;;;14.40;99.90;;;;;;5034571;28;20460;-62
2022/04/01 10:57:00;;;;;;;17.00;6.07;;;14.40;99.90;;;;;;5034719;28;20621;-63
2022/04/01 11:00:08;;;;;;;12.63;4.30;;;14.40;99.90;;;;;;5034431;28;20045;-66
2022/04/01 11:03:23;;;;;;;17.48;4.90;;;14.50;99.90;;;;;;5034529;28;20064;-62
2022/04/01 11:06:27;;;;;;;16.80;5.18;;;14.60;99.90;;;;;;5034488;28;20048;-61
2022/04/01 11:09:54;;;;;;;18.77;4.85;;;14.60;99.90;;;;;;5033074;28;20682;-61
2022/04/01 11:12:58;;;;;;;15.73;4.20;;;14.60;99.90;;;;;;5034396;28;20057;-63
2022/04/01 11:16:14;;;;;;;14.63;4.28;;;14.60;99.90;;;;;;5034142;28;20040;-62
2022/04/01 11:19:25;;;;;;;19.10;4.85;;;14.50;99.80;;;;;;5033976;28;20078;-63
2022/04/01 11:22:45;;;;;;;17.17;4.83;;;14.60;99.90;;;;;;5034519;28;20048;-62
2022/04/01 11:25:53;;;;;;;13.07;4.82;;;14.80;99.90;;;;;;5033960;28;20279;-62
2022/04/01 11:29:01;;;;;;;17.20;4.13;;;14.90;99.80;;;;;;5034247;28;20044;-62
2022/04/01 11:32:09;;;;;;;13.07;3.83;;;15.00;99.60;;;;;;5033821;28;20064;-62
2022/04/01 11:35:15;;;;;;;15.10;4.85;;;15.00;99.30;;;;;;5034054;28;20048;-61
2022/04/01 11:38:22;;;;;;;14.00;4.53;;;15.00;99.30;;;;;;5033834;28;20508;-63
2022/04/01 11:41:27;;;;;;;17.80;9.15;;;15.10;99.70;;;;;;5033659;28;20053;-62
2022/04/01 11:44:32;;;;;;;11.80;4.22;;;15.20;99.80;;;;;;5034095;28;20044;-62
2022/04/01 11:47:39;;;;;;;10.00;3.63;;;15.20;99.20;;;;;;5022049;28;20064;-63
2022/04/01 11:50:45;;;;;;;12.95;4.05;;;15.30;99.00;;;;;;5033615;28;20048;-62
2022/04/01 11:53:52;;;;;;;11.55;5.07;;;15.20;98.50;;;;;;5033818;28;20048;-63
2022/04/01 11:56:56;;;;;;;9.25;3.20;;;15.30;99.00;;;;;;5022103;28;20036;-63
2022/04/01 12:00:00;;;;;;;9.73;3.80;;;15.50;97.90;;;;;;5033449;28;20068;-64
2022/04/01 12:03:07;;;;;;;8.95;3.92;;;15.60;96.90;;;;;;5032944;28;20412;-63
2022/04/01 12:09:34;;;;;;;16.15;4.32;;;15.80;96.40;;;;;;5033233;28;20404;-64
2022/04/01 12:12:37;;;;;;;12.13;4.18;;;15.80;96.50;;;;;;5033326;28;20053;-63
2022/04/01 12:15:47;;;;;;;9.30;4.03;;;15.90;96.20;;;;;;5033536;28;20052;-64
2022/04/01 12:18:51;;;;;;;11.55;3.97;;;16.00;95.60;;;;;;5033091;28;20037;-65
2022/04/01 12:21:58;;;;;;;14.75;4.95;;;16.00;95.60;;;;;;5009244;28;20040;-65
2022/04/01 12:25:02;;;;;;;12.50;4.50;;;16.10;95.40;;;;;;5032774;28;20052;-66
2022/04/01 12:28:23;;;;;;;13.48;4.45;;;16.10;95.20;;;;;;5033063;28;20056;-62
2022/04/01 12:31:28;;;;;;;12.40;4.43;;;16.10;94.90;;;;;;5033071;28;20049;-64
2022/04/01 12:34:34;;;;;;;9.18;3.85;;;16.20;95.60;;;;;;5033570;28;20044;-66
2022/04/01 12:37:38;;;;;;;12.90;3.72;;;16.30;94.40;;;;;;5021377;28;20045;-64
2022/04/01 12:40:45;;;;;;;7.53;4.00;;;16.40;94.50;;;;;;5033138;28;20044;-63
2022/04/01 12:43:52;;;;;;;7.53;2.80;;;16.40;93.80;;;;;;5033271;28;20066;-62
2022/04/01 12:47:03;;;;;;;7.07;2.50;;;16.30;93.20;;;;;;5032804;28;20052;-62
2022/04/01 12:50:07;;;;;;;6.68;2.53;;;16.30;93.00;;;;;;5032728;28;20374;-66
2022/04/01 12:53:13;;;;;;;7.13;1.90;;;16.40;92.20;;;;;;5032670;28;20049;-63
2022/04/01 12:56:31;;;;;;;4.90;2.47;;;16.40;91.70;;;;;;5020579;28;20036;-64
2022/04/01 12:59:41;;;;;;;5.10;2.70;;;16.40;91.50;;;;;;5032187;28;20037;-64
2022/04/01 13:02:44;;;;;;;5.90;2.17;;;16.40;92.00;;;;;;5032416;28;20067;-62
2022/04/01 13:06:11;;;;;;;8.40;1.80;;;16.50;91.30;;;;;;5032311;28;20033;-64
2022/04/01 13:09:20;;;;;;;7.40;2.28;;;16.50;90.90;;;;;;5032342;28;20053;-63
2022/04/01 13:12:46;;;;;;;6.68;2.40;;;16.50;90.80;;;;;;5032125;28;20056;-63
2022/04/01 13:15:51;;;;;;;8.73;2.63;;;16.50;90.20;;;;;;5031752;28;20052;-64
2022/04/01 13:19:19;;;;;;;16.40;3.72;;;16.60;90.00;;;;;;5032238;28;20044;-64
2022/04/01 13:22:23;;;;;;;9.93;2.20;;;16.60;89.00;;;;;;5032125;28;20045;-63
2022/04/01 13:25:31;;;;;;;6.32;2.55;;;16.70;89.00;;;;;;5032260;28;20044;-64
2022/04/01 13:28:35;;;;;;;10.57;2.42;;;16.70;89.00;;;;;;5031925;28;20327;-63
2022/04/01 13:31:40;;;;;;;17.17;3.30;;;16.70;88.50;;;;;;5031520;28;20056;-63
2022/04/01 13:34:47;;;;;;;16.98;4.05;;;16.70;89.10;;;;;;5031769;28;20040;-62
2022/04/01 13:37:51;;;;;;;16.38;3.13;;;16.70;89.50;;;;;;5031876;28;20060;-63
2022/04/01 13:40:56;;;;;;;15.65;2.58;;;16.80;90.20;;;;;;5031742;28;20441;-64
2022/04/01 13:44:00;;;;;;;10.23;2.25;;;16.80;90.90;;;;;;5031579;28;20040;-63
2022/04/01 13:47:05;;;;;;;20.55;3.78;;;16.70;90.80;;;;;;5031897;28;20044;-62
2022/04/01 13:50:10;;;;;;;16.60;3.22;;;16.70;91.40;;;;;;5031361;28;20048;-62
2022/04/01 13:53:14;;;;;;;16.77;3.80;;;16.80;91.40;;;;;;5019270;28;20057;-63
2022/04/01 13:56:18;;;;;;;16.70;3.10;;;16.70;91.30;;;;;;5030068;28;20060;-63
2022/04/01 13:59:22;;;;;;;20.52;3.47;;;16.80;91.40;;;;;;5030686;28;20044;-63
2022/04/01 14:02:27;;;;;;;14.98;2.72;;;16.70;91.80;;;;;;5029620;28;20048;-62
2022/04/01 14:05:31;;;;;;;20.30;2.83;;;16.70;91.60;;;;;;5031414;28;20056;-62
2022/04/01 14:08:36;;;;;;;20.23;3.20;;;16.70;91.40;;;;;;5031500;28;20053;-65
2022/04/01 14:11:40;;;;;;;11.85;2.15;;;16.70;90.70;;;;;;5031205;28;20048;-62
2022/04/01 14:14:45;;;;;;;10.35;2.50;;;16.60;90.80;;;;;;5031002;28;20052;-63
2022/04/01 14:17:50;;;;;;;16.40;2.72;;;16.50;91.40;;;;;;5031035;28;20044;-63
2022/04/01 14:20:57;;;;;;;7.85;2.00;;;16.50;91.50;;;;;;5030903;28;20400;-63
2022/04/01 14:24:03;;;;;;;16.60;2.63;;;16.50;91.60;;;;;;5031058;28;20413;-64
2022/04/01 14:27:07;;;;;;;9.40;3.03;;;16.40;92.10;;;;;;5030753;28;20053;-64
2022/04/01 14:30:21;;;;;;;16.05;3.20;;;16.40;92.20;;;;;;5030611;28;20046;-63
2022/04/01 14:33:27;;;;;;;21.10;4.03;;;16.30;92.60;;;;;;5030641;28;20508;-65
2022/04/01 14:36:31;;;;;;;17.02;3.80;;;16.20;92.50;;;;;;5031111;28;20715;-64
2022/04/01 14:39:35;;;;;;;12.60;3.53;;;16.20;92.10;;;;;;5030776;28;20590;-63
2022/04/01 14:42:38;;;;;;;15.35;3.92;;;16.10;91.80;;;;;;5030870;28;20049;-66
2022/04/01 14:45:44;;;;;;;14.10;3.88;;;16.00;92.20;;;;;;5030934;28;20041;-66
2022/04/01 14:48:48;;;;;;;16.30;4.38;;;15.90;92.60;;;;;;5029683;28;20044;-64
2022/04/01 14:51:52;;;;;;;19.63;4.90;;;15.80;93.00;;;;;;5028877;28;20644;-66
2022/04/01 14:54:56;;;;;;;15.88;4.00;;;15.70;93.10;;;;;;5029454;28;20044;-66
2022/04/01 14:58:01;;;;;;;16.27;3.45;;;15.70;93.30;;;;;;5016786;28;20068;-66
2022/04/01 15:01:05;;;;;;;13.77;4.10;;;15.60;92.60;;;;;;5029323;28;20249;-66
2022/04/01 15:04:09;;;;;;;11.52;3.80;;;15.60;92.60;;;;;;5030469;28;20396;-66
2022/04/01 15:07:13;;;;;;;14.13;4.43;;;15.60;92.80;;;;;;5030671;28;20040;-66
2022/04/01 15:10:18;;;;;;;14.20;3.90;;;15.50;93.20;;;;;;5029854;28;20052;-66
2022/04/01 15:13:22;;;;;;;14.43;4.40;;;15.40;92.80;;;;;;5029554;28;20056;-63
2022/04/01 15:16:26;;;;;;;19.50;4.63;;;15.40;93.40;;;;;;5029905;28;20044;-65
2022/04/01 15:19:30;;;;;;;13.50;4.35;;;15.30;93.40;;;;;;5017473;28;20500;-67
2022/04/01 15:22:36;;;;;;;13.40;4.03;;;15.20;93.80;;;;;;5028979;28;20049;-65
2022/04/01 15:25:40;;;;;;;9.15;4.47;;;15.10;93.70;;;;;;5017843;28;20334;-66
2022/04/01 15:28:44;;;;;;;14.15;4.20;;;15.00;94.30;;;;;;5030382;28;20048;-62
2022/04/01 15:31:48;;;;;;;14.63;4.18;;;14.90;94.50;;;;;;5029795;28;20056;-63
2022/04/01 15:34:55;;;;;;;15.65;4.50;;;14.90;95.00;;;;;;5030395;28;20057;-64
2022/04/01 15:38:04;;;;;;;12.23;4.25;;;14.80;95.10;;;;;;5031676;28;20045;-64
2022/04/01 15:41:09;;;;;;;9.52;4.03;;;14.70;95.30;;;;;;5033957;28;20385;-63
2022/04/01 15:44:13;;;;;;;10.50;3.67;;;14.70;95.80;;;;;;5034044;28;20045;-64
2022/04/01 15:47:20;;;;;;;13.20;4.70;;;14.70;95.70;;;;;;5033627;28;20049;-63
2022/04/01 15:50:25;;;;;;;12.95;4.50;;;14.60;95.80;;;;;;5033853;28;20048;-64
2022/04/01 15:53:29;;;;;;;14.35;4.38;;;14.60;95.60;;;;;;5033391;28;20052;-64
2022/04/01 15:56:33;;;;;;;11.35;3.95;;;14.50;95.70;;;;;;5033543;28;20044;-63
2022/04/01 15:59:38;;;;;;;9.18;3.80;;;14.50;95.50;;;;;;5020102;28;20456;-65
2022/04/01 16:02:48;;;;;;;11.98;3.78;;;14.50;95.20;;;;;;5033605;28;20038;-65
2022/04/01 16:05:54;;;;;;;8.70;3.55;;;14.50;95.30;;;;;;5033640;28;20503;-64
2022/04/01 16:09:00;;;;;;;15.13;5.22;;;14.30;95.20;;;;;;5033361;28;20504;-64
2022/04/01 16:12:06;;;;;;;17.70;6.10;;;14.30;95.30;;;;;;5033255;28;20048;-64
2022/04/01 16:15:11;;;;;;;16.13;5.00;;;14.30;95.50;;;;;;5033693;28;20044;-64
2022/04/01 16:18:15;;;;;;;11.50;4.70;;;14.10;95.70;;;;;;5033351;28;20053;-64
2022/04/01 16:21:22;;;;;;;13.45;5.28;;;14.10;95.90;;;;;;5033397;28;20040;-67
2022/04/01 16:24:28;;;;;;;19.15;5.93;;;14.10;96.10;;;;;;5033085;28;20393;-65
2022/04/01 16:27:32;;;;;;;12.75;5.05;;;14.10;96.40;;;;;;5033241;28;20045;-62
2022/04/01 16:30:37;;;;;;;17.17;5.10;;;14.00;97.00;;;;;;5032531;28;20060;-63
2022/04/01 16:33:42;;;;;;;15.27;4.82;;;14.00;96.70;;;;;;5032768;28;20053;-65
2022/04/01 16:36:45;;;;;;;16.05;7.47;;;14.10;96.70;;;;;;5032180;28;20052;-63
2022/04/01 16:39:50;;;;;;;10.65;4.95;;;14.10;97.00;;;;;;5032646;28;20052;-63
2022/04/01 16:42:54;;;;;;;12.05;4.15;;;14.20;97.50;;;;;;5032496;28;20045;-64
2022/04/01 16:45:58;;;;;;;14.52;4.68;;;14.10;97.40;;;;;;5031564;28;20048;-63
2022/04/01 16:49:02;;;;;;;12.50;4.20;;;14.00;97.70;;;;;;5032214;28;20052;-63
2022/04/01 16:52:06;;;;;;;12.98;4.32;;;14.10;98.00;;;;;;5008705;28;20068;-64
2022/04/01 16:55:11;;;;;;;13.70;6.13;;;14.10;98.10;;;;;;5032126;28;20052;-66